Elkton, Illinois
Current Conditions -  °F | °C
As of 9:55 AM on Tuesday 21 Oct 2014 (Local Time) from KSAR Reporting Station
Clear Clear  
Wind Chill: 56°   Ceiling: Unl
Heat Index: 56°   Visibility: 10mi
Dew Point: 47°   Wind: 6mph
Humidity: 71%   Direction: 350°N
Pressure: 30.12"   Gusts: NA
Location:  38.2623°N, 89.5911°W
Report Text: KSAR 211455Z AUTO 35005KT 10SM CLR 13/08 A3012 RMK AO2 T01340083
Loading
Personal Weather Stations






























Interactive Weather Map
Tropical Storm Tracking
New forecast layout! Learn more

10-Day Weather Forecast

Advertisements
Track Severe Weather on mobile